首页
METAR-TAF:

METAR-TAF

机场 :

Davenport Municipal Airport

達文波特, 艾奥瓦州, 美国

纬度: 41-36-50N, 经度: 090-35-29W, 海拔: 229米

当前天气观测

该预报发布于1小时和6分钟前的08:52 UTC
风速27节,风向西转西南,有时为35节阵风
温度 8°C
湿度 71%
气压 996 hPa
能見度: 14.5公里
阴天层高于2500英尺
小雨

METAR: KDVN 290852Z AUTO 24027G35KT 9SM -RA OVC025 08/03 A2942 RMK AO2 PK WND 23042/0840 RAB52 SLP959 P0000 60000 T00780033 55004

时间: 04:58 (09:58 UTC)


TAF: 丢失

超过4000个机场的气象观测和天气预报(METAR&TAF报告)。

可查询的气象台以黄色和红色小点在地图上表示。

将鼠标移到小点上方,可查看气象台名称。

然后点击查看天气观测和预报。

如需切换地图:点击带黑十字的绿色按钮放大地图;点击带横线的绿色按钮缩小地图;或者点击绿色箭头查看邻近地区的地图。


METAR-TAF: